This is the latest recevied weather packets stored in our database for station/object N5PA. If no packets are shown the sender has not sent any weather packets the latest 10 day(s).
| Time | Temp. | Humidity | Pressure | Rain* | Wind** | Luminosity | Snow |
|---|---|---|---|---|---|---|---|
| 1777847406 | 25° C | 32% | 1017.8 hPa | 0 mm | - | 1016 W/m² | - |
| 1777842905 | 24.44° C | 35% | 1018.7 hPa | 0 mm | - | 1014 W/m² | - |
| 1777841104 | 23.89° C | 35% | 1019.2 hPa | 0 mm | - | 1014 W/m² | - |
| 1777840507 | 23.89° C | 32% | 1019.4 hPa | 0 mm | - | 1014 W/m² | - |
| 1777839907 | 23.89° C | 32% | 1019.5 hPa | 0 mm | - | 1014 W/m² | - |
| 1777839607 | 23.33° C | 32% | 1019.5 hPa | 0 mm | - | 1014 W/m² | - |
| 1777837808 | 23.33° C | 35% | 1020.1 hPa | 0 mm | - | 1014 W/m² | - |
| 1777833007 | 22.22° C | 41% | 1021.4 hPa | 0 mm | - | 1023 W/m² | - |
| 1777832107 | 22.22° C | 37% | 1021.6 hPa | 0 mm | - | 1018 W/m² | - |
| 1777831807 | 22.22° C | 39% | 1021.6 hPa | 0 mm | - | 1016 W/m² | - |
| 1777828206 | 21.67° C | 38% | 1022.4 hPa | 0 mm | - | 1011 W/m² | - |
| 1777827007 | 21.67° C | 35% | 1022.7 hPa | 0 mm | - | 1013 W/m² | - |
| 1777825207 | 21.11° C | 41% | 1022.9 hPa | 0 mm | - | 1018 W/m² | - |
| 1777822207 | 20° C | 49% | 1023.4 hPa | 0 mm | - | 1016 W/m² | - |
| 1777821007 | 20° C | 50% | 1023.5 hPa | 0 mm | - | 1013 W/m² | - |
| 1777820707 | 19.44° C | 50% | 1023.5 hPa | 0 mm | - | 1013 W/m² | - |
| 1777819806 | 18.89° C | 59% | 1023.4 hPa | 0 mm | - | 1013 W/m² | - |
| 1777810206 | 8.33° C | 46% | 1022.1 hPa | 0 mm | - | 1035 W/m² | - |
| 1777806307 | 7.78° C | 47% | 1021.3 hPa | 0 mm | - | 1046 W/m² | - |
| 1777804206 | 8.33° C | 49% | 1020.9 hPa | 0 mm | - | 1046 W/m² | - |
| 1777802707 | 8.33° C | 49% | 1020.8 hPa | 0 mm | - | 1046 W/m² | - |
| 1777802106 | 8.33° C | 49% | 1020.8 hPa | 0 mm | - | 1046 W/m² | - |
| 1777801207 | 8.33° C | 49% | 1020.6 hPa | 0 mm | - | 1046 W/m² | - |
| 1777800905 | 8.33° C | 49% | 1020.5 hPa | 0 mm | - | 1046 W/m² | - |
| 1777800604 | 8.33° C | 50% | 1020.5 hPa | 0 mm | - | 1048 W/m² | - |
* Rain latest hour (hover to see other rain measurements)
** Current wind speed in m/s (hover to see current wind gust speed)